Time;durP1;ratioP1;P1;durP2;ratioP2;P2;SDS_P1;SDS_P2;PMS_P1;PMS_P2;Temp;Humidity;BMP_temperature;BMP_pressure;BME280_temperature;BME280_humidity;BME280_pressure;Samples;Min_cycle;Max_cycle;Signal;HPM_P1;HPM_P2
2024/01/12 00:01:18;;;;;;;95.43;35.28;;;;;;;-4.06;100.00;97765.69;4976833;28;20038;-71
2024/01/12 00:03:43;;;;;;;97.80;36.30;;;;;;;-4.14;100.00;97765.28;4997263;28;20053;-74
2024/01/12 00:06:09;;;;;;;106.85;37.47;;;;;;;-4.80;100.00;97757.84;4960038;28;20038;-72
2024/01/12 00:08:37;;;;;;;107.55;37.58;;;;;;;-4.89;100.00;97759.31;4980605;28;20537;-74
2024/01/12 00:11:03;;;;;;;113.50;37.85;;;;;;;-4.81;100.00;97757.06;4980088;28;20367;-70
2024/01/12 00:13:28;;;;;;;110.80;36.65;;;;;;;-4.61;100.00;97745.06;4980514;28;20109;-74
2024/01/12 00:15:53;;;;;;;102.40;35.35;;;;;;;-4.55;100.00;97743.28;4963841;28;20112;-73
2024/01/12 00:18:19;;;;;;;120.50;40.40;;;;;;;-4.82;100.00;97747.41;4974823;28;20376;-74
2024/01/12 00:20:45;;;;;;;109.55;38.13;;;;;;;-4.83;100.00;97748.44;4981222;28;20674;-74
2024/01/12 00:23:10;;;;;;;106.75;39.22;;;;;;;-4.63;100.00;97753.34;4975471;28;20037;-75
2024/01/12 00:25:36;;;;;;;110.65;36.85;;;;;;;-4.47;100.00;97756.25;4980966;28;20389;-73
2024/01/12 00:28:01;;;;;;;112.95;39.15;;;;;;;-4.40;100.00;97756.09;4980010;28;20130;-73
2024/01/12 00:30:27;;;;;;;111.00;36.58;;;;;;;-4.30;100.00;97756.25;4961888;28;20039;-74
2024/01/12 00:32:52;;;;;;;106.40;36.03;;;;;;;-4.22;100.00;97751.28;4984921;28;20038;-72
2024/01/12 00:35:17;;;;;;;97.95;35.30;;;;;;;-4.30;100.00;97758.94;4981524;28;20039;-72
2024/01/12 00:37:43;;;;;;;104.00;35.35;;;;;;;-4.25;100.00;97754.47;4990700;28;20039;-73
2024/01/12 00:40:09;;;;;;;105.20;36.75;;;;;;;-4.06;100.00;97756.84;4982191;28;20137;-72
2024/01/12 00:42:34;;;;;;;99.82;36.13;;;;;;;-4.48;100.00;97754.63;4979575;28;20531;-72
2024/01/12 00:45:00;;;;;;;104.53;36.15;;;;;;;-4.55;100.00;97756.66;4980996;28;20050;-72
2024/01/12 00:47:26;;;;;;;100.63;35.92;;;;;;;-4.32;100.00;97758.34;4957684;28;20065;-72
2024/01/12 00:49:51;;;;;;;94.78;36.03;;;;;;;-4.19;100.00;97754.53;4979601;28;20042;-72
2024/01/12 00:52:16;;;;;;;110.75;37.47;;;;;;;-4.25;100.00;97754.47;4970144;28;20058;-71
2024/01/12 00:54:42;;;;;;;108.47;36.83;;;;;;;-4.14;100.00;97767.97;4962551;28;20097;-72
2024/01/12 00:57:08;;;;;;;95.65;35.47;;;;;;;-4.00;100.00;97763.88;4976414;28;20046;-70
2024/01/12 00:59:33;;;;;;;99.13;35.78;;;;;;;-3.88;100.00;97766.47;4980241;28;20507;-72
2024/01/12 01:01:59;;;;;;;101.57;38.63;;;;;;;-3.91;100.00;97773.09;4980286;28;20035;-72
2024/01/12 01:04:28;;;;;;;100.55;35.38;;;;;;;-3.86;100.00;97781.22;4976365;28;20129;-72
2024/01/12 01:06:53;;;;;;;102.23;34.90;;;;;;;-3.78;100.00;97784.53;4981052;28;20042;-72
2024/01/12 01:09:19;;;;;;;101.55;35.20;;;;;;;-3.88;100.00;97777.19;4974047;28;20285;-72
2024/01/12 01:11:44;;;;;;;100.55;35.90;;;;;;;-3.76;100.00;97783.22;4983034;28;20046;-72
2024/01/12 01:14:10;;;;;;;108.80;36.15;;;;;;;-3.74;100.00;97788.34;4976253;28;20042;-71
2024/01/12 01:16:35;;;;;;;103.03;35.17;;;;;;;-3.82;100.00;97786.88;4966152;28;20042;-72
2024/01/12 01:19:00;;;;;;;108.55;37.47;;;;;;;-3.89;100.00;97784.41;4981344;28;20046;-71
2024/01/12 01:21:26;;;;;;;98.15;35.53;;;;;;;-3.76;100.00;97787.75;4974834;28;20049;-71
2024/01/12 01:23:52;;;;;;;108.75;37.20;;;;;;;-3.79;100.00;97788.28;4977583;28;20049;-71
2024/01/12 01:26:17;;;;;;;103.80;36.00;;;;;;;-3.87;100.00;97784.13;4976276;28;20046;-71
2024/01/12 01:28:43;;;;;;;101.30;37.08;;;;;;;-3.80;100.00;97776.72;4980268;28;20042;-71
2024/01/12 01:31:08;;;;;;;103.35;36.45;;;;;;;-3.84;100.00;97778.28;4975134;28;20613;-71
2024/01/12 01:33:34;;;;;;;100.38;35.53;;;;;;;-3.79;100.00;97785.59;4980578;28;20038;-71
2024/01/12 01:35:59;;;;;;;103.32;35.88;;;;;;;-3.92;100.00;97782.22;4979596;28;20038;-71
2024/01/12 01:38:24;;;;;;;94.82;36.22;;;;;;;-3.91;100.00;97791.03;4973251;28;20046;-71
2024/01/12 01:40:50;;;;;;;105.35;38.22;;;;;;;-3.86;100.00;97791.13;4977153;28;20174;-71
2024/01/12 01:43:15;;;;;;;89.25;33.40;;;;;;;-3.96;100.00;97793.63;4967278;28;20125;-71
2024/01/12 01:45:40;;;;;;;92.70;34.92;;;;;;;-4.00;100.00;97790.66;4979773;28;20405;-71
2024/01/12 01:48:08;;;;;;;97.95;37.15;;;;;;;-3.83;100.00;97790.63;4971710;28;20174;-71
2024/01/12 01:50:34;;;;;;;66.63;25.70;;;;;;;-4.20;100.00;97796.50;4979033;28;20049;-71
2024/01/12 01:53:00;;;;;;;60.15;23.65;;;;;;;-4.36;100.00;97797.31;4977928;28;20049;-72
2024/01/12 01:55:29;;;;;;;62.38;23.77;;;;;;;-4.10;100.00;97798.53;4974777;28;20402;-72
2024/01/12 01:57:58;;;;;;;72.03;24.20;;;;;;;-4.35;100.00;97796.28;4978540;28;20066;-72
2024/01/12 02:00:32;;;;;;;64.45;23.95;;;;;;;-4.38;100.00;97802.91;4968744;28;20191;-74
2024/01/12 02:02:59;;;;;;;66.28;23.48;;;;;;;-4.20;100.00;97799.19;4957462;28;20047;-72
2024/01/12 02:05:29;;;;;;;65.38;23.00;;;;;;;-4.20;100.00;97809.88;4950295;28;20042;-73
2024/01/12 02:07:58;;;;;;;66.45;23.98;;;;;;;-4.06;100.00;97802.34;4981006;28;20128;-73
2024/01/12 02:10:28;;;;;;;58.70;20.50;;;;;;;-4.33;100.00;97803.00;4975558;28;20378;-71
2024/01/12 02:12:54;;;;;;;59.63;20.92;;;;;;;-4.36;100.00;97802.69;4984095;28;20034;-73
2024/01/12 02:15:20;;;;;;;65.47;23.05;;;;;;;-4.28;100.00;97802.28;4973824;28;20374;-73
2024/01/12 02:17:47;;;;;;;58.72;21.83;;;;;;;-4.55;100.00;97805.59;4980496;28;20096;-72
2024/01/12 02:20:13;;;;;;;69.40;23.23;;;;;;;-4.34;100.00;97805.91;4972873;28;20043;-72
2024/01/12 02:22:38;;;;;;;54.25;19.83;;;;;;;-4.39;100.00;97803.16;4990320;28;20050;-71
2024/01/12 02:25:05;;;;;;;66.75;22.10;;;;;;;-4.69;100.00;97797.06;4974618;28;20142;-72
2024/01/12 02:27:30;;;;;;;55.47;20.25;;;;;;;-4.79;100.00;97799.53;4979998;28;20050;-73
2024/01/12 02:29:57;;;;;;;57.78;21.08;;;;;;;-4.66;100.00;97801.94;4979555;28;20517;-73
2024/01/12 02:32:23;;;;;;;54.97;19.90;;;;;;;-4.53;100.00;97794.66;4974982;28;20386;-74
2024/01/12 02:34:49;;;;;;;60.05;21.65;;;;;;;-4.24;100.00;97790.03;4981230;28;20047;-74
2024/01/12 02:37:14;;;;;;;60.88;19.95;;;;;;;-4.15;100.00;97777.06;4977946;28;20081;-76
2024/01/12 02:39:40;;;;;;;55.80;19.85;;;;;;;-4.26;100.00;97782.25;4985282;28;20132;-75
2024/01/12 02:42:05;;;;;;;59.40;20.45;;;;;;;-4.25;100.00;97783.88;4962480;28;20509;-75
2024/01/12 02:44:30;;;;;;;54.58;19.88;;;;;;;-4.26;100.00;97784.13;4982707;28;20549;-75
2024/01/12 02:46:56;;;;;;;58.35;19.25;;;;;;;-4.08;100.00;97789.22;4982756;28;20095;-74
2024/01/12 02:49:21;;;;;;;51.33;18.65;;;;;;;-4.08;100.00;97778.50;4977446;28;20050;-74
2024/01/12 02:51:48;;;;;;;53.42;20.60;;;;;;;-4.36;100.00;97776.72;4983482;28;20137;-74
2024/01/12 02:54:13;;;;;;;56.95;19.23;;;;;;;-4.59;100.00;97771.53;4979272;28;20108;-74
2024/01/12 02:56:38;;;;;;;55.55;19.88;;;;;;;-4.89;100.00;97778.81;4985065;28;20039;-75
2024/01/12 02:59:04;;;;;;;59.85;21.05;;;;;;;-4.76;100.00;97767.00;4982874;28;20105;-74
2024/01/12 03:01:29;;;;;;;57.42;20.05;;;;;;;-4.54;100.00;97771.63;4982243;28;20050;-73
2024/01/12 03:03:55;;;;;;;61.58;21.40;;;;;;;-4.29;100.00;97764.00;4965659;28;20045;-73
2024/01/12 03:06:21;;;;;;;60.70;19.85;;;;;;;-4.10;100.00;97767.25;4977058;28;20042;-72
2024/01/12 03:08:46;;;;;;;53.95;20.40;;;;;;;-3.99;100.00;97768.19;4982673;28;20565;-74
2024/01/12 03:11:11;;;;;;;59.08;20.42;;;;;;;-3.93;100.00;97763.72;4989483;28;20034;-72
2024/01/12 03:13:37;;;;;;;56.22;20.35;;;;;;;-3.92;100.00;97768.81;4991136;28;20057;-73
2024/01/12 03:16:06;;;;;;;54.72;19.63;;;;;;;-3.95;100.00;97763.97;4989976;28;20043;-74
2024/01/12 03:18:32;;;;;;;53.60;20.27;;;;;;;-3.97;100.00;97765.28;4992408;28;20039;-74
2024/01/12 03:20:58;;;;;;;55.97;20.25;;;;;;;-3.85;100.00;97772.13;4984492;28;20038;-74
2024/01/12 03:23:23;;;;;;;63.20;21.10;;;;;;;-3.85;100.00;97763.31;4976920;28;20046;-73
2024/01/12 03:25:49;;;;;;;62.92;20.50;;;;;;;-3.92;100.00;97763.47;4983453;28;20106;-73
2024/01/12 03:28:15;;;;;;;61.20;20.63;;;;;;;-4.20;100.00;97760.94;4978293;28;20061;-73
2024/01/12 03:30:40;;;;;;;59.75;21.23;;;;;;;-4.20;100.00;97761.72;4983232;28;20109;-73
2024/01/12 03:33:08;;;;;;;52.67;19.52;;;;;;;-4.34;100.00;97768.47;4964758;28;20060;-73
2024/01/12 03:35:35;;;;;;;65.07;21.50;;;;;;;-4.73;100.00;97765.72;4980319;28;20054;-74
2024/01/12 03:38:01;;;;;;;63.00;22.45;;;;;;;-4.90;100.00;97763.00;5000490;28;20496;-73
2024/01/12 03:40:26;;;;;;;65.28;22.50;;;;;;;-4.65;100.00;97762.63;4982136;28;20046;-73
2024/01/12 03:42:51;;;;;;;67.82;21.33;;;;;;;-4.32;100.00;97769.03;4983874;28;20129;-74
2024/01/12 03:45:17;;;;;;;60.90;21.15;;;;;;;-4.20;100.00;97761.72;4978108;28;20041;-74
2024/01/12 03:47:42;;;;;;;65.22;21.27;;;;;;;-4.56;100.00;97753.16;4981279;28;20038;-73
2024/01/12 03:50:09;;;;;;;61.28;22.10;;;;;;;-4.56;100.00;97753.16;4978383;28;20805;-72
2024/01/12 03:52:35;;;;;;;67.28;20.65;;;;;;;-4.42;100.00;97756.31;4963886;28;20053;-73
2024/01/12 03:55:00;;;;;;;59.85;20.13;;;;;;;-4.51;100.00;97750.56;4981977;28;20042;-74
2024/01/12 03:57:26;;;;;;;60.80;20.15;;;;;;;-4.18;100.00;97756.94;4978798;28;20119;-73
2024/01/12 03:59:51;;;;;;;57.42;21.90;;;;;;;-4.08;100.00;97751.75;4980772;28;20065;-75
2024/01/12 04:02:17;;;;;;;74.88;24.75;;;;;;;-4.75;100.00;97751.75;4960447;28;20468;-73
2024/01/12 04:04:42;;;;;;;72.03;24.60;;;;;;;-5.20;100.00;97766.78;4982553;28;20051;-75
2024/01/12 04:07:08;;;;;;;74.45;23.77;;;;;;;-5.32;100.00;97772.16;4981314;28;20133;-75
2024/01/12 04:09:33;;;;;;;78.25;25.65;;;;;;;-5.43;100.00;97775.66;4993251;28;20043;-73
2024/01/12 04:11:59;;;;;;;77.65;24.88;;;;;;;-5.47;100.00;97766.53;4987980;28;20124;-75
2024/01/12 04:14:24;;;;;;;81.32;28.63;;;;;;;-5.59;100.00;97770.00;4977378;28;20057;-74
2024/01/12 04:16:50;;;;;;;88.88;28.95;;;;;;;-5.55;100.00;97759.69;4988026;28;20043;-74
2024/01/12 04:19:16;;;;;;;90.40;27.05;;;;;;;-5.66;100.00;97755.19;4985253;28;20057;-74
2024/01/12 04:21:41;;;;;;;95.00;31.92;;;;;;;-5.86;100.00;97758.25;4988928;28;20500;-74
2024/01/12 04:24:06;;;;;;;112.78;33.00;;;;;;;-5.93;100.00;97758.38;4977386;28;20046;-74
2024/01/12 04:26:32;;;;;;;114.32;33.67;;;;;;;-6.00;100.00;97755.03;4981659;28;20042;-74
2024/01/12 04:28:57;;;;;;;113.53;32.38;;;;;;;-5.93;100.00;97762.91;4980301;28;20045;-73
2024/01/12 04:31:22;;;;;;;108.78;34.05;;;;;;;-5.86;100.00;97758.25;4976430;28;20046;-72
2024/01/12 04:33:48;;;;;;;121.22;34.70;;;;;;;-5.78;100.00;97768.53;4981147;28;20058;-72
2024/01/12 04:36:13;;;;;;;112.40;32.47;;;;;;;-5.84;100.00;97767.63;4976093;28;20476;-72
2024/01/12 04:38:39;;;;;;;101.65;31.75;;;;;;;-5.74;100.00;97776.88;4984262;28;20458;-74
2024/01/12 04:41:04;;;;;;;108.93;32.60;;;;;;;-5.35;100.00;97772.59;4976779;28;20041;-73
2024/01/12 04:43:30;;;;;;;103.38;30.63;;;;;;;-5.31;100.00;97772.94;4971272;28;20065;-75
2024/01/12 04:45:55;;;;;;;101.20;31.73;;;;;;;-5.35;100.00;97769.13;4981274;28;20049;-73
2024/01/12 04:48:21;;;;;;;96.13;30.42;;;;;;;-5.32;100.00;97776.69;4974144;28;20046;-74
2024/01/12 04:50:46;;;;;;;100.10;30.30;;;;;;;-5.87;100.00;97775.28;4980783;28;20074;-75
2024/01/12 04:53:13;;;;;;;115.55;31.45;;;;;;;-5.91;100.00;97779.47;4974178;28;20135;-74
2024/01/12 04:55:38;;;;;;;90.75;27.63;;;;;;;-5.89;100.00;97780.06;4979380;28;20469;-74
2024/01/12 04:58:04;;;;;;;116.28;33.28;;;;;;;-5.98;100.00;97790.28;4975674;28;20034;-74
2024/01/12 05:00:30;;;;;;;99.22;28.48;;;;;;;-5.88;100.00;97795.84;4981054;28;20065;-74
2024/01/12 05:02:55;;;;;;;101.30;30.77;;;;;;;-6.08;100.00;97798.09;4980236;28;20158;-74
2024/01/12 05:05:20;;;;;;;100.93;31.10;;;;;;;-6.06;100.00;97801.34;4975534;28;21805;-74
2024/01/12 05:07:46;;;;;;;101.82;30.73;;;;;;;-6.11;100.00;97786.00;4974342;28;20050;-74
2024/01/12 05:10:12;;;;;;;115.70;29.73;;;;;;;-6.02;100.00;97781.94;4991738;28;20050;-74
2024/01/12 05:12:37;;;;;;;116.47;31.88;;;;;;;-6.24;100.00;97788.91;4984451;28;20126;-74
2024/01/12 05:15:03;;;;;;;107.13;31.02;;;;;;;-6.15;100.00;97788.34;4979977;28;20050;-75
2024/01/12 05:17:29;;;;;;;124.70;34.80;;;;;;;-6.30;100.00;97790.66;4977783;28;20093;-74
2024/01/12 05:19:54;;;;;;;117.88;33.58;;;;;;;-6.36;100.00;97788.91;4979825;28;20042;-74
2024/01/12 05:22:20;;;;;;;100.70;30.10;;;;;;;-6.23;100.00;97794.03;4976370;28;20142;-74
2024/01/12 05:24:45;;;;;;;102.13;32.28;;;;;;;-6.38;100.00;97802.47;4981207;28;20042;-73
2024/01/12 05:27:11;;;;;;;111.63;30.52;;;;;;;-6.45;100.00;97792.97;4958566;28;20039;-74
2024/01/12 05:29:36;;;;;;;108.78;31.08;;;;;;;-6.50;100.00;97793.63;4979899;28;20650;-73
2024/01/12 05:32:02;;;;;;;104.18;29.55;;;;;;;-6.49;100.00;97795.28;4975122;28;20082;-73
2024/01/12 05:34:30;;;;;;;109.20;36.80;;;;;;;-6.59;100.00;97809.19;4978012;28;20069;-75
2024/01/12 05:36:55;;;;;;;128.18;33.00;;;;;;;-6.61;100.00;97805.94;4980092;28;20046;-75
2024/01/12 05:39:21;;;;;;;125.32;34.03;;;;;;;-6.62;100.00;97803.50;4959161;28;20484;-74
2024/01/12 05:41:46;;;;;;;125.70;37.33;;;;;;;-6.66;100.00;97811.13;4974203;28;20158;-74
2024/01/12 05:44:11;;;;;;;134.77;36.15;;;;;;;-6.76;100.00;97802.88;4974536;28;20050;-73
2024/01/12 05:46:39;;;;;;;131.02;35.35;;;;;;;-6.70;100.00;97812.59;4980885;28;20038;-73
2024/01/12 05:49:05;;;;;;;122.38;34.63;;;;;;;-6.77;100.00;97819.88;4990495;28;20049;-73
2024/01/12 05:51:30;;;;;;;126.95;35.28;;;;;;;-6.86;100.00;97818.59;5006790;28;20042;-73
2024/01/12 05:53:56;;;;;;;130.55;37.15;;;;;;;-6.84;100.00;97819.16;4996917;28;20075;-73
2024/01/12 05:56:22;;;;;;;133.18;41.70;;;;;;;-6.88;100.00;97823.31;4984357;28;20093;-73
2024/01/12 05:58:48;;;;;;;127.20;37.63;;;;;;;-6.89;100.00;97819.06;4983927;28;20457;-74
2024/01/12 06:01:13;;;;;;;139.25;39.30;;;;;;;-6.89;100.00;97822.53;4977010;28;20113;-73
2024/01/12 06:03:39;;;;;;;128.63;34.95;;;;;;;-6.87;100.00;97817.78;4982043;28;20481;-72
2024/01/12 06:06:04;;;;;;;117.63;37.28;;;;;;;-6.92;100.00;97814.97;4980751;28;20462;-73
2024/01/12 06:08:30;;;;;;;124.20;34.95;;;;;;;-6.87;100.00;97816.97;4990482;28;20116;-74
2024/01/12 06:10:55;;;;;;;129.63;33.88;;;;;;;-6.71;100.00;97812.84;4990332;28;20038;-73
2024/01/12 06:13:20;;;;;;;115.80;33.90;;;;;;;-6.79;100.00;97813.97;4979939;28;20143;-72
2024/01/12 06:15:46;;;;;;;123.55;35.90;;;;;;;-6.81;100.00;97822.19;4966875;28;20655;-74
2024/01/12 06:18:14;;;;;;;133.40;40.75;;;;;;;-6.86;100.00;97819.41;4979007;28;20038;-72
2024/01/12 06:20:39;;;;;;;121.60;35.38;;;;;;;-6.81;100.00;97822.19;4983304;28;20100;-73
2024/01/12 06:23:05;;;;;;;105.25;33.40;;;;;;;-6.78;100.00;97823.59;4979987;28;20041;-75
2024/01/12 06:25:36;;;;;;;107.18;33.92;;;;;;;-6.68;100.00;97818.53;4985014;28;20046;-72
2024/01/12 06:28:02;;;;;;;115.35;37.60;;;;;;;-6.83;100.00;97834.13;4982991;28;20054;-74
2024/01/12 06:30:28;;;;;;;112.93;36.75;;;;;;;-6.88;100.00;97833.97;4970445;28;20035;-75
2024/01/12 06:32:53;;;;;;;133.15;37.47;;;;;;;-6.89;100.00;97827.06;4984173;28;20041;-74
2024/01/12 06:35:19;;;;;;;125.85;37.75;;;;;;;-6.88;100.00;97818.00;4977744;28;20552;-73
2024/01/12 06:37:45;;;;;;;147.60;41.40;;;;;;;-6.93;100.00;97818.69;4986053;28;20102;-73
2024/01/12 06:40:11;;;;;;;122.05;38.83;;;;;;;-6.91;100.00;97821.94;4976508;28;20887;-73
2024/01/12 06:42:36;;;;;;;131.40;41.33;;;;;;;-6.98;100.00;97830.03;4985561;28;20572;-75
2024/01/12 06:45:03;;;;;;;129.77;39.35;;;;;;;-6.86;100.00;97826.56;4962561;28;20129;-77
2024/01/12 06:47:29;;;;;;;128.50;38.08;;;;;;;-6.81;100.00;97824.03;4972442;28;20049;-73
2024/01/12 06:49:54;;;;;;;124.47;41.33;;;;;;;-6.85;100.00;97818.38;4982550;28;20034;-75
2024/01/12 06:52:20;;;;;;;123.18;37.80;;;;;;;-6.88;100.00;97813.47;4976577;28;20043;-74
2024/01/12 06:54:45;;;;;;;141.10;41.10;;;;;;;-6.86;100.00;97811.44;4981972;28;20053;-74
2024/01/12 06:57:11;;;;;;;130.07;39.17;;;;;;;-6.80;100.00;97815.03;4977099;28;20066;-75
2024/01/12 06:59:37;;;;;;;142.82;40.10;;;;;;;-6.81;100.00;97826.72;4967426;28;20046;-75
2024/01/12 07:02:02;;;;;;;129.82;39.97;;;;;;;-6.78;100.00;97815.59;4984892;28;20154;-76
2024/01/12 07:04:27;;;;;;;133.57;38.13;;;;;;;-6.80;100.00;97815.84;4980144;28;20501;-75
2024/01/12 07:06:53;;;;;;;135.00;39.95;;;;;;;-6.76;100.00;97824.19;4990300;28;20038;-75
2024/01/12 07:09:19;;;;;;;126.55;36.40;;;;;;;-6.62;100.00;97822.94;4997016;28;20121;-76
2024/01/12 07:11:45;;;;;;;133.50;38.78;;;;;;;-6.69;100.00;97824.09;4989351;28;20050;-76
2024/01/12 07:14:11;;;;;;;138.25;39.83;;;;;;;-6.59;100.00;97824.31;4978400;28;20038;-76
2024/01/12 07:16:37;;;;;;;127.28;39.90;;;;;;;-6.54;100.00;97822.59;4980719;28;20510;-75
2024/01/12 07:19:03;;;;;;;117.38;37.78;;;;;;;-6.46;100.00;97826.81;4979771;28;20097;-76
2024/01/12 07:21:29;;;;;;;128.65;39.72;;;;;;;-6.46;100.00;97823.31;4979654;28;20042;-73
2024/01/12 07:23:54;;;;;;;121.35;35.80;;;;;;;-6.40;100.00;97817.88;4985095;28;20080;-75
2024/01/12 07:26:19;;;;;;;121.90;39.53;;;;;;;-6.44;100.00;97824.72;4976569;28;20045;-74
2024/01/12 07:28:46;;;;;;;121.78;38.90;;;;;;;-6.40;100.00;97825.06;4981846;28;20049;-74
2024/01/12 07:31:11;;;;;;;122.60;37.85;;;;;;;-6.32;100.00;97829.25;4959507;28;20039;-73
2024/01/12 07:33:37;;;;;;;118.78;36.53;;;;;;;-6.23;100.00;97834.03;4982837;28;20545;-74
2024/01/12 07:36:02;;;;;;;111.13;37.17;;;;;;;-6.09;100.00;97839.13;4980776;28;20449;-76
2024/01/12 07:38:28;;;;;;;124.78;39.63;;;;;;;-5.95;100.00;97835.16;4980602;28;20101;-75
2024/01/12 07:40:53;;;;;;;116.28;37.22;;;;;;;-6.04;100.00;97833.91;4980831;28;20050;-76
2024/01/12 07:43:19;;;;;;;118.93;38.92;;;;;;;-6.18;100.00;97833.31;4986687;28;20181;-75
2024/01/12 07:45:44;;;;;;;126.78;38.30;;;;;;;-6.36;100.00;97840.38;4965328;28;20060;-75
2024/01/12 07:48:10;;;;;;;124.68;39.83;;;;;;;-6.44;100.00;97832.72;4973660;28;20738;-75
2024/01/12 07:50:36;;;;;;;124.07;38.45;;;;;;;-6.31;100.00;97841.56;4964618;28;20061;-75
2024/01/12 07:53:02;;;;;;;120.00;36.40;;;;;;;-6.39;100.00;97838.19;4981356;28;20034;-76
2024/01/12 07:55:27;;;;;;;127.38;40.80;;;;;;;-6.47;100.00;97835.03;4980053;28;20489;-75
2024/01/12 07:57:53;;;;;;;125.15;41.88;;;;;;;-6.48;100.00;97836.88;4982993;28;20126;-75
2024/01/12 08:00:19;;;;;;;121.45;42.47;;;;;;;-6.49;100.00;97835.25;4978937;28;20133;-76
2024/01/12 08:02:44;;;;;;;132.27;41.90;;;;;;;-6.38;100.00;97841.66;4988572;28;20042;-72
2024/01/12 08:05:10;;;;;;;117.15;38.65;;;;;;;-6.43;100.00;97842.31;4977357;28;20038;-73
2024/01/12 08:07:36;;;;;;;138.15;42.80;;;;;;;-6.58;100.00;97837.44;4992418;28;20058;-74
2024/01/12 08:10:02;;;;;;;143.88;47.05;;;;;;;-6.56;100.00;97845.19;4990666;28;20054;-72
2024/01/12 08:12:27;;;;;;;132.57;42.75;;;;;;;-6.44;100.00;97837.25;4978127;28;20046;-74
2024/01/12 08:14:52;;;;;;;133.63;44.00;;;;;;;-6.34;100.00;97848.13;4981542;28;20038;-72
2024/01/12 08:17:18;;;;;;;129.77;41.55;;;;;;;-6.41;100.00;97847.44;4977424;28;20048;-73
2024/01/12 08:19:43;;;;;;;132.85;45.03;;;;;;;-6.45;100.00;97847.06;4964428;28;20049;-74
2024/01/12 08:22:08;;;;;;;138.48;47.90;;;;;;;-6.45;100.00;97840.94;4977328;28;20189;-74
2024/01/12 08:24:34;;;;;;;132.07;45.35;;;;;;;-6.50;100.00;97838.94;4985399;28;20053;-75
2024/01/12 08:26:59;;;;;;;139.10;48.92;;;;;;;-6.41;100.00;97836.75;4997488;28;20105;-74
2024/01/12 08:29:24;;;;;;;132.48;44.25;;;;;;;-6.37;100.00;97846.75;4989771;28;20058;-73
2024/01/12 08:31:51;;;;;;;119.93;39.92;;;;;;;-6.25;100.00;97840.63;4991593;28;20050;-75
2024/01/12 08:34:17;;;;;;;135.75;42.03;;;;;;;-6.24;100.00;97842.25;4982371;28;20074;-74
2024/01/12 08:36:42;;;;;;;134.77;42.60;;;;;;;-6.23;100.00;97839.38;4980424;28;20437;-73
2024/01/12 08:39:08;;;;;;;125.80;42.60;;;;;;;-6.20;100.00;97848.75;4974440;28;20053;-74
2024/01/12 08:41:33;;;;;;;133.18;48.33;;;;;;;-6.18;100.00;97860.00;4999185;28;20485;-74
2024/01/12 08:43:58;;;;;;;124.53;42.90;;;;;;;-6.10;100.00;97846.31;4980732;28;20065;-73
2024/01/12 08:46:24;;;;;;;120.68;40.67;;;;;;;-6.10;100.00;97848.16;4976529;28;20494;-74
2024/01/12 08:48:49;;;;;;;127.68;44.08;;;;;;;-6.14;100.00;97845.13;4981848;28;20047;-73
2024/01/12 08:51:15;;;;;;;143.40;48.88;;;;;;;-5.90;100.00;97851.28;4977955;28;20119;-73
2024/01/12 08:53:40;;;;;;;127.25;41.30;;;;;;;-5.93;100.00;97851.75;4980968;28;20034;-74
2024/01/12 08:56:07;;;;;;;123.90;38.70;;;;;;;-5.89;100.00;97852.91;4974512;28;20046;-71
2024/01/12 08:58:33;;;;;;;116.07;37.53;;;;;;;-5.91;100.00;97848.84;4961362;28;20358;-75
2024/01/12 09:00:59;;;;;;;116.60;40.47;;;;;;;-5.90;100.00;97853.16;4977962;28;20030;-75
2024/01/12 09:03:24;;;;;;;124.85;40.38;;;;;;;-5.69;100.00;97857.06;4958571;28;20077;-75
2024/01/12 09:05:50;;;;;;;124.50;45.05;;;;;;;-5.54;100.00;97862.75;4979991;28;20086;-75
2024/01/12 09:08:15;;;;;;;125.97;40.72;;;;;;;-5.34;100.00;97861.56;4977427;28;20109;-76
2024/01/12 09:10:40;;;;;;;106.32;35.22;;;;;;;-5.24;100.00;97859.91;4987396;28;20149;-75
2024/01/12 09:13:06;;;;;;;108.28;37.55;;;;;;;-5.31;100.00;97861.91;4976402;28;20042;-74
2024/01/12 09:15:31;;;;;;;109.05;36.47;;;;;;;-5.29;100.00;97867.00;4978227;28;20100;-73
2024/01/12 09:17:57;;;;;;;113.82;39.97;;;;;;;-4.98;100.00;97857.75;4980044;28;20743;-74
2024/01/12 09:20:22;;;;;;;101.75;38.00;;;;;;;-4.67;100.00;97859.13;4975520;28;20716;-72
2024/01/12 09:22:48;;;;;;;115.43;35.95;;;;;;;-4.39;100.00;97857.47;4979815;28;20054;-73
2024/01/12 09:25:13;;;;;;;111.65;35.80;;;;;;;-3.90;100.00;97867.63;4957894;28;20050;-73
2024/01/12 09:27:39;;;;;;;103.85;35.65;;;;;;;-3.54;100.00;97865.47;4976324;28;20046;-74
2024/01/12 09:30:05;;;;;;;88.97;32.45;;;;;;;-3.56;100.00;97862.22;4975218;28;20197;-73
2024/01/12 09:32:30;;;;;;;93.40;33.33;;;;;;;-4.30;100.00;97868.59;4978746;28;20529;-74
2024/01/12 09:34:56;;;;;;;93.65;33.38;;;;;;;-4.41;100.00;97870.28;4975230;28;20065;-74
2024/01/12 09:37:21;;;;;;;86.05;29.63;;;;;;;-3.74;100.00;97868.66;4976027;28;20527;-75
2024/01/12 09:39:47;;;;;;;87.30;28.77;;;;;;;-3.58;100.00;97861.63;4981967;28;20046;-75
2024/01/12 09:42:14;;;;;;;78.60;28.58;;;;;;;-3.40;100.00;97869.41;4972976;28;20559;-76
2024/01/12 09:44:45;;;;;;;76.43;27.50;;;;;;;-3.23;100.00;97879.28;4978345;28;20045;-74
2024/01/12 09:47:12;;;;;;;76.65;28.83;;;;;;;-2.89;100.00;97864.66;4974134;28;20412;-75
2024/01/12 09:49:38;;;;;;;73.35;26.67;;;;;;;-3.60;100.00;97864.59;4980417;28;20042;-73
2024/01/12 09:52:03;;;;;;;72.28;26.27;;;;;;;-3.23;100.00;97864.00;4978012;28;20081;-75
2024/01/12 09:54:29;;;;;;;68.97;25.35;;;;;;;-3.00;100.00;97862.13;4978728;28;20563;-75
2024/01/12 09:56:59;;;;;;;78.47;27.45;;;;;;;-3.13;100.00;97866.00;4980094;28;20405;-75
2024/01/12 09:59:27;;;;;;;81.82;32.33;;;;;;;-3.27;100.00;97863.69;4976428;28;20145;-75
2024/01/12 10:01:52;;;;;;;65.28;24.70;;;;;;;-3.56;100.00;97863.03;4961942;28;20069;-75
2024/01/12 10:04:18;;;;;;;77.07;28.92;;;;;;;-3.73;100.00;97871.06;4975530;28;20129;-74
2024/01/12 10:06:44;;;;;;;75.30;28.35;;;;;;;-3.75;100.00;97864.34;4991298;28;20050;-74
2024/01/12 10:09:09;;;;;;;82.28;28.92;;;;;;;-4.13;100.00;97876.63;4978894;28;20162;-74
2024/01/12 10:11:35;;;;;;;64.13;23.08;;;;;;;-3.63;100.00;97870.44;4979086;28;20173;-74
2024/01/12 10:14:00;;;;;;;64.18;22.80;;;;;;;-3.52;100.00;97868.69;4980184;28;20558;-74
2024/01/12 10:16:31;;;;;;;67.60;25.23;;;;;;;-3.73;100.00;97860.38;4973062;28;20046;-73
2024/01/12 10:18:58;;;;;;;57.28;21.95;;;;;;;-3.85;100.00;97855.13;4981305;28;20038;-73
2024/01/12 10:21:27;;;;;;;58.38;21.58;;;;;;;-3.65;100.00;97845.78;4976315;28;20886;-73
2024/01/12 10:24:03;;;;;;;56.95;21.17;;;;;;;-3.68;100.00;97854.28;4979445;28;20545;-75
2024/01/12 10:26:29;;;;;;;58.95;21.98;;;;;;;-3.90;100.00;97851.56;4984276;28;20043;-75
2024/01/12 10:28:54;;;;;;;57.08;22.58;;;;;;;-3.96;100.00;97848.00;4991343;28;20112;-74
2024/01/12 10:31:20;;;;;;;67.88;21.90;;;;;;;-3.92;100.00;97840.28;4976406;28;20046;-74
2024/01/12 10:33:46;;;;;;;64.00;21.58;;;;;;;-3.84;100.00;97845.22;4977179;28;20043;-75
2024/01/12 10:36:21;;;;;;;53.58;21.45;;;;;;;-3.68;100.00;97840.91;4955859;28;20766;-74
2024/01/12 10:38:48;;;;;;;57.60;21.55;;;;;;;-3.89;100.00;97845.97;4969740;28;20047;-75
2024/01/12 10:41:19;;;;;;;67.55;26.23;;;;;;;-4.25;100.00;97853.44;4972522;28;20046;-74
2024/01/12 10:43:50;;;;;;;65.78;25.67;;;;;;;-4.40;100.00;97857.72;4978407;28;20053;-74
2024/01/12 10:46:47;;;;;;;70.53;27.90;;;;;;;-4.45;100.00;97839.72;4974680;28;20101;-74
2024/01/12 10:49:21;;;;;;;60.47;23.92;;;;;;;-4.40;100.00;97847.00;4974307;28;20100;-74
2024/01/12 10:52:00;;;;;;;65.15;25.08;;;;;;;-4.07;100.00;97836.34;4977797;28;20042;-74
2024/01/12 10:54:32;;;;;;;57.42;21.05;;;;;;;-3.82;100.00;97832.38;4973327;28;20074;-75
2024/01/12 10:56:58;;;;;;;61.22;20.42;;;;;;;-3.64;100.00;97831.31;4982413;28;20073;-74
2024/01/12 10:59:25;;;;;;;68.55;23.42;;;;;;;-3.77;100.00;97827.13;4974981;28;20618;-74